»·PEaware :: N198TS KSAN-KTNP

N198TS :: KSAN-KTNP

FLIGHT INFORMATION

Flight Status: Arrived
Operator: Privately registered:
United States
More flights under this callsign
Pilot: Adam S. (8156)
Aircraft: Unknown
(DA62)
More flights by this aircraft type
Origin: KSAN San Diego Intl-Lindbergh
United States
Destination: KTNP Twentynine Palms
United States
More flights between these airports :: More routes between these airports
Route: +BRDR7 JLI V208 TNP
File this flight plan on PilotEdge
Remarks:
Altitude:
(Current/Filed)
11,000ft
Speed:
(Current/Filed)
170kts
Departed: 16-Jul-18 08:05 AM
Arrived: 16-Jul-18 08:57 AM
Distance/Time
Traveled:
105nm/0:52
Distance/Time
To Go:
Arrived

Flight Plot

Page will automatically refresh every two minutes.

Flight plan parsing failed; only flown route is shown


Map Options




Map Legend


Flown Route
Filed Route
Departure Airport
Arrival Airport
Navaid (VOR, NDB)
Fix

Horizontal Profiles

Position Reports

Time Latitude Longitude Heading Altitude Ground
Speed
16-Jul-18 07:35 32.732395 -117.176705 194 29ft 0kts
16-Jul-18 07:36 32.732395 -117.176705 194 29ft 0kts
16-Jul-18 07:37 32.732395 -117.176705 194 29ft 0kts
16-Jul-18 07:38 32.732395 -117.176705 194 29ft 0kts
16-Jul-18 07:39 32.732395 -117.176705 194 29ft 0kts
16-Jul-18 07:41 32.732395 -117.176705 194 29ft 0kts
16-Jul-18 07:45 32.732395 -117.176705 194 29ft 0kts
16-Jul-18 07:46 32.732395 -117.176705 194 29ft 0kts
16-Jul-18 07:47 32.732395 -117.176705 194 29ft 0kts
16-Jul-18 07:48 32.732395 -117.176705 194 29ft 0kts
16-Jul-18 07:49 32.732395 -117.176705 194 29ft 0kts
16-Jul-18 07:50 32.732395 -117.176705 194 29ft 0kts
16-Jul-18 07:51 32.732395 -117.176705 194 29ft 0kts
16-Jul-18 07:52 32.732395 -117.176705 194 29ft 0kts
16-Jul-18 07:53 32.732395 -117.176705 194 29ft 0kts
16-Jul-18 07:54 32.732395 -117.176705 194 29ft 0kts
16-Jul-18 07:55 32.732395 -117.176705 194 29ft 0kts
16-Jul-18 07:56 32.732395 -117.176705 194 29ft 0kts
16-Jul-18 07:57 32.732395 -117.176705 194 29ft 0kts
16-Jul-18 07:58 32.732395 -117.176705 194 29ft 0kts
16-Jul-18 07:59 32.732395 -117.176705 194 29ft 0kts
16-Jul-18 08:00 32.732395 -117.176705 194 29ft 0kts
16-Jul-18 08:01 32.732395 -117.176705 194 29ft 0kts
16-Jul-18 08:02 32.732395 -117.176705 194 29ft 0kts
16-Jul-18 08:03 32.732395 -117.176705 194 29ft 0kts
16-Jul-18 08:04 32.731335 -117.175976 126 27ft 8kts
16-Jul-18 08:05 32.730960 -117.175500 147 27ft 5kts
16-Jul-18 08:06 32.734203 -117.191886 285 257ft 109kts
16-Jul-18 08:07 32.743453 -117.225580 287 1727ft 108kts
16-Jul-18 08:08 32.753560 -117.259103 286 3164ft 110kts
16-Jul-18 08:09 32.763668 -117.293599 285 4592ft 113kts
16-Jul-18 08:10 32.747696 -117.304873 133 5988ft 106kts
16-Jul-18 08:11 32.728217 -117.279884 135 7359ft 100kts
16-Jul-18 08:12 32.709655 -117.257110 134 8438ft 98kts
16-Jul-18 08:13 32.690842 -117.234127 134 9525ft 99kts
16-Jul-18 08:14 32.689839 -117.207796 51 10558ft 107kts
16-Jul-18 08:15 32.712527 -117.177755 51 10973ft 152kts
16-Jul-18 08:16 32.742477 -117.137049 51 10964ft 173kts
16-Jul-18 08:17 32.773866 -117.093988 50 10964ft 176kts
16-Jul-18 08:18 32.805533 -117.050416 50 10963ft 175kts
16-Jul-18 08:19 32.836920 -117.007155 49 10963ft 174kts
16-Jul-18 08:20 32.868215 -116.963970 49 10965ft 174kts
16-Jul-18 08:21 32.899671 -116.920513 48 10966ft 173kts
16-Jul-18 08:22 32.930772 -116.877499 48 10969ft 174kts
16-Jul-18 08:23 32.962152 -116.834071 48 10971ft 174kts
16-Jul-18 08:24 32.993494 -116.790627 48 10999ft 174kts
16-Jul-18 08:25 33.024991 -116.746912 48 10999ft 176kts
16-Jul-18 08:26 33.056919 -116.702543 48 10999ft 177kts
16-Jul-18 08:27 33.088799 -116.658187 48 10999ft 178kts
16-Jul-18 08:28 33.119971 -116.614767 48 11000ft 179kts
16-Jul-18 08:29 33.147013 -116.577101 48 10994ft 180kts
16-Jul-18 08:30 33.192176 -116.535095 34 11086ft 177kts
16-Jul-18 08:31 33.232933 -116.501258 34 11050ft 181kts
16-Jul-18 08:32 33.274406 -116.466797 34 10999ft 183kts
16-Jul-18 08:33 33.315906 -116.432271 34 10960ft 183kts
16-Jul-18 08:34 33.350471 -116.403485 34 10940ft 183kts
16-Jul-18 08:35 33.392036 -116.368832 34 10935ft 182kts
16-Jul-18 08:36 33.433303 -116.334385 34 10935ft 182kts
16-Jul-18 08:37 33.481438 -116.294156 34 10935ft 182kts
16-Jul-18 08:38 33.515812 -116.265394 34 10935ft 182kts
16-Jul-18 08:39 33.557126 -116.230788 34 10935ft 182kts
16-Jul-18 08:40 33.598432 -116.196147 34 10935ft 182kts
16-Jul-18 08:41 33.639557 -116.161616 34 10936ft 182kts
16-Jul-18 08:42 33.680774 -116.126924 34 10935ft 182kts
16-Jul-18 08:43 33.721993 -116.092176 34 10935ft 182kts
16-Jul-18 08:44 33.763098 -116.057538 34 10935ft 182kts
16-Jul-18 08:45 33.804366 -116.022722 34 10935ft 182kts
16-Jul-18 08:46 33.845571 -115.987922 34 10935ft 182kts
16-Jul-18 08:47 33.886870 -115.952996 34 10935ft 182kts
16-Jul-18 08:48 33.928683 -115.917702 34 10695ft 191kts
16-Jul-18 08:49 33.972755 -115.880364 34 10119ft 199kts
16-Jul-18 08:50 34.017510 -115.842378 34 9192ft 200kts
16-Jul-18 08:51 34.062409 -115.804222 34 8198ft 199kts
16-Jul-18 08:52 34.110621 -115.787282 0 6893ft 168kts
16-Jul-18 08:53 34.143131 -115.816003 271 5029ft 166kts
16-Jul-18 08:54 34.116351 -115.833807 100 2952ft 171kts
16-Jul-18 08:55 34.140127 -115.825687 278 2052ft 142kts
16-Jul-18 08:56 34.134285 -115.870352 267 2296ft 132kts
16-Jul-18 08:57 34.134494 -115.913729 271 2052ft 103kts
16-Jul-18 08:58 34.134427 -115.940363 271 1809ft 40kts
16-Jul-18 08:59 34.134935 -115.941541 357 1813ft 5kts
16-Jul-18 09:00 34.135904 -115.941725 304 1813ft 0kts
16-Jul-18 09:01 34.135904 -115.941725 304 1813ft 0kts
16-Jul-18 09:02 34.135904 -115.941725 304 1813ft 0kts
16-Jul-18 09:03 34.135904 -115.941725 304 1813ft 0kts
16-Jul-18 09:04 34.135904 -115.941725 304 1813ft 0kts
16-Jul-18 09:05 34.135904 -115.941725 304 1813ft 0kts

Navigation Log

Ident Type
Flight plan parsing failed, navigation log unavailable